Terminal Aerodrome Forecast
Issued by NWS

Home | Current Version | Previous Version | Text Only | Print | Product List | Glossary On
Versions: 1 2 3 4 5 6 7 8 9 10 11 12
000
FTUS45 KTFX 240520
TAFBZN
TAF
KBZN 240520Z 2406/2512 VRB05KT P6SM SCT050 BKN150
     FM242000 27011KT P6SM SCT060 BKN090 PROB30 2422/2502 VRB15G30KT
      -TSRA OVC060CB
     FM250400 15007KT P6SM SCT040 BKN080=

USA.gov is the U.S. government's official web portal to all federal, state and local government web resources and services.